sensor_id;sensor_type;location;lat;lon;timestamp;pressure;altitude;pressure_sealevel;temperature;humidity
69221;BME280;56331;51.992;20.910;2023-06-14T00:02:13;100333.83;;;24.59;42.66
69221;BME280;56331;51.992;20.910;2023-06-14T00:04:40;100330.80;;;24.58;42.67
69221;BME280;56331;51.992;20.910;2023-06-14T00:07:07;100321.88;;;24.59;42.55
69221;BME280;56331;51.992;20.910;2023-06-14T00:09:35;100331.63;;;24.59;42.49
69221;BME280;56331;51.992;20.910;2023-06-14T00:12:01;100336.61;;;24.59;42.46
69221;BME280;56331;51.992;20.910;2023-06-14T00:14:28;100335.56;;;24.58;42.38
69221;BME280;56331;51.992;20.910;2023-06-14T00:16:54;100334.98;;;24.58;42.37
69221;BME280;56331;51.992;20.910;2023-06-14T00:19:22;100334.98;;;24.58;42.33
69221;BME280;56331;51.992;20.910;2023-06-14T00:21:49;100330.80;;;24.58;42.30
69221;BME280;56331;51.992;20.910;2023-06-14T00:24:16;100330.00;;;24.58;42.27
69221;BME280;56331;51.992;20.910;2023-06-14T00:26:42;100316.66;;;24.57;42.24
69221;BME280;56331;51.992;20.910;2023-06-14T00:29:08;100326.41;;;24.57;42.22
69221;BME280;56331;51.992;20.910;2023-06-14T00:31:35;100329.20;;;24.57;42.21
69221;BME280;56331;51.992;20.910;2023-06-14T00:34:01;100320.03;;;24.57;42.19
69221;BME280;56331;51.992;20.910;2023-06-14T00:36:28;100322.02;;;24.56;42.19
69221;BME280;56331;51.992;20.910;2023-06-14T00:38:54;100322.23;;;24.57;42.19
69221;BME280;56331;51.992;20.910;2023-06-14T00:41:20;100324.21;;;24.57;42.13
69221;BME280;56331;51.992;20.910;2023-06-14T00:43:47;100327.00;;;24.57;42.10
69221;BME280;56331;51.992;20.910;2023-06-14T00:46:14;100315.86;;;24.57;42.11
69221;BME280;56331;51.992;20.910;2023-06-14T00:48:41;100314.81;;;24.55;42.15
69221;BME280;56331;51.992;20.910;2023-06-14T00:51:08;100314.22;;;24.56;42.10
69221;BME280;56331;51.992;20.910;2023-06-14T00:53:35;100316.45;;;24.56;42.08
69221;BME280;56331;51.992;20.910;2023-06-14T00:56:02;100328.39;;;24.57;42.08
69221;BME280;56331;51.992;20.910;2023-06-14T00:58:29;100321.19;;;24.56;42.08
69221;BME280;56331;51.992;20.910;2023-06-14T01:03:31;100327.59;;;24.56;42.06
69221;BME280;56331;51.992;20.910;2023-06-14T01:08:51;100317.01;;;24.56;42.05
69221;BME280;56331;51.992;20.910;2023-06-14T01:11:22;100315.41;;;24.55;42.06
69221;BME280;56331;51.992;20.910;2023-06-14T01:13:50;100316.20;;;24.55;42.04
69221;BME280;56331;51.992;20.910;2023-06-14T01:16:18;100311.23;;;24.55;42.04
69221;BME280;56331;51.992;20.910;2023-06-14T01:18:46;100316.80;;;24.55;42.05
69221;BME280;56331;51.992;20.910;2023-06-14T01:21:22;100311.81;;;24.54;42.05
69221;BME280;56331;51.992;20.910;2023-06-14T01:23:48;100309.62;;;24.54;42.03
69221;BME280;56331;51.992;20.910;2023-06-14T01:26:16;100312.62;;;24.55;42.01
69221;BME280;56331;51.992;20.910;2023-06-14T01:28:43;100312.03;;;24.55;42.03
69221;BME280;56331;51.992;20.910;2023-06-14T01:31:11;100315.41;;;24.55;42.01
69221;BME280;56331;51.992;20.910;2023-06-14T01:33:38;100313.21;;;24.54;41.99
69221;BME280;56331;51.992;20.910;2023-06-14T01:36:05;100314.02;;;24.55;41.98
69221;BME280;56331;51.992;20.910;2023-06-14T01:38:32;100310.42;;;24.54;42.01
69221;BME280;56331;51.992;20.910;2023-06-14T01:40:59;100304.85;;;24.54;42.01
69221;BME280;56331;51.992;20.910;2023-06-14T01:43:29;100307.64;;;24.54;41.99
69221;BME280;56331;51.992;20.910;2023-06-14T01:45:57;100308.82;;;24.53;41.99
69221;BME280;56331;51.992;20.910;2023-06-14T01:48:26;100307.43;;;24.53;42.06
69221;BME280;56331;51.992;20.910;2023-06-14T01:50:52;100306.25;;;24.54;41.99
69221;BME280;56331;51.992;20.910;2023-06-14T01:53:19;100299.88;;;24.54;41.98
69221;BME280;56331;51.992;20.910;2023-06-14T01:55:45;100302.66;;;24.54;41.94
69221;BME280;56331;51.992;20.910;2023-06-14T01:58:14;100300.47;;;24.53;41.99
69221;BME280;56331;51.992;20.910;2023-06-14T02:00:42;100296.84;;;24.53;41.95
69221;BME280;56331;51.992;20.910;2023-06-14T02:03:09;100294.66;;;24.52;41.95
69221;BME280;56331;51.992;20.910;2023-06-14T02:05:37;100294.66;;;24.52;41.94
69221;BME280;56331;51.992;20.910;2023-06-14T02:08:06;100301.62;;;24.52;41.98
69221;BME280;56331;51.992;20.910;2023-06-14T02:10:33;100295.24;;;24.52;41.96
69221;BME280;56331;51.992;20.910;2023-06-14T02:13:00;100293.27;;;24.52;41.94
69221;BME280;56331;51.992;20.910;2023-06-14T02:15:26;100298.03;;;24.52;41.95
69221;BME280;56331;51.992;20.910;2023-06-14T02:17:55;100299.42;;;24.52;41.94
69221;BME280;56331;51.992;20.910;2023-06-14T02:20:21;100295.24;;;24.52;41.92
69221;BME280;56331;51.992;20.910;2023-06-14T02:22:47;100299.77;;;24.50;41.94
69221;BME280;56331;51.992;20.910;2023-06-14T02:25:14;100297.23;;;24.51;41.92
69221;BME280;56331;51.992;20.910;2023-06-14T02:27:41;100300.02;;;24.51;41.93
69221;BME280;56331;51.992;20.910;2023-06-14T02:30:08;100297.81;;;24.51;41.93
69221;BME280;56331;51.992;20.910;2023-06-14T02:32:34;100292.25;;;24.51;41.92
69221;BME280;56331;51.992;20.910;2023-06-14T02:35:02;100295.84;;;24.51;41.92
69221;BME280;56331;51.992;20.910;2023-06-14T02:37:28;100281.45;;;24.49;41.93
69221;BME280;56331;51.992;20.910;2023-06-14T02:39:56;100285.05;;;24.50;41.90
69221;BME280;56331;51.992;20.910;2023-06-14T02:42:22;100285.05;;;24.50;41.90
69221;BME280;56331;51.992;20.910;2023-06-14T02:44:48;100290.61;;;24.50;41.90
69221;BME280;56331;51.992;20.910;2023-06-14T02:47:18;100293.39;;;24.50;41.90
69221;BME280;56331;51.992;20.910;2023-06-14T02:49:45;100290.61;;;24.50;41.93
69221;BME280;56331;51.992;20.910;2023-06-14T02:52:12;100292.80;;;24.50;41.90
69221;BME280;56331;51.992;20.910;2023-06-14T02:54:39;100292.00;;;24.50;41.90
69221;BME280;56331;51.992;20.910;2023-06-14T02:57:06;100286.44;;;24.50;41.88
69221;BME280;56331;51.992;20.910;2023-06-14T02:59:34;100283.66;;;24.50;41.90
69221;BME280;56331;51.992;20.910;2023-06-14T03:02:01;100289.22;;;24.50;41.90
69221;BME280;56331;51.992;20.910;2023-06-14T03:04:28;100281.24;;;24.48;41.89
69221;BME280;56331;51.992;20.910;2023-06-14T03:06:55;100277.63;;;24.48;41.98
69221;BME280;56331;51.992;20.910;2023-06-14T03:09:23;100284.37;;;24.47;42.09
69221;BME280;56331;51.992;20.910;2023-06-14T03:11:49;100279.40;;;24.46;42.08
69221;BME280;56331;51.992;20.910;2023-06-14T03:14:16;100282.98;;;24.47;42.15
69221;BME280;56331;51.992;20.910;2023-06-14T03:16:44;100285.56;;;24.45;42.14
69221;BME280;56331;51.992;20.910;2023-06-14T03:19:11;100284.72;;;24.45;42.17
69221;BME280;56331;51.992;20.910;2023-06-14T03:21:37;100286.70;;;24.44;42.19
69221;BME280;56331;51.992;20.910;2023-06-14T03:24:06;100283.58;;;24.46;42.23
69221;BME280;56331;51.992;20.910;2023-06-14T03:26:33;100291.13;;;24.45;42.24
69221;BME280;56331;51.992;20.910;2023-06-14T03:28:59;100288.34;;;24.45;42.25
69221;BME280;56331;51.992;20.910;2023-06-14T03:31:26;100286.95;;;24.45;42.23
69221;BME280;56331;51.992;20.910;2023-06-14T03:33:53;100292.27;;;24.44;42.23
69221;BME280;56331;51.992;20.910;2023-06-14T03:36:19;100291.13;;;24.45;42.27
69221;BME280;56331;51.992;20.910;2023-06-14T03:38:46;100289.49;;;24.44;42.27
69221;BME280;56331;51.992;20.910;2023-06-14T03:41:12;100290.64;;;24.43;42.30
69221;BME280;56331;51.992;20.910;2023-06-14T03:43:38;100285.88;;;24.44;42.29
69221;BME280;56331;51.992;20.910;2023-06-14T03:46:05;100292.62;;;24.43;42.32
69221;BME280;56331;51.992;20.910;2023-06-14T03:48:31;100288.45;;;24.43;42.36
69221;BME280;56331;51.992;20.910;2023-06-14T03:50:57;100287.05;;;24.43;42.37
69221;BME280;56331;51.992;20.910;2023-06-14T03:53:24;100283.68;;;24.43;42.38
69221;BME280;56331;51.992;20.910;2023-06-14T03:55:50;100287.05;;;24.43;42.38
69221;BME280;56331;51.992;20.910;2023-06-14T03:58:18;100292.84;;;24.44;42.37
69221;BME280;56331;51.992;20.910;2023-06-14T04:00:44;100292.03;;;24.43;42.42
69221;BME280;56331;51.992;20.910;2023-06-14T04:03:15;100295.63;;;24.44;42.42
69221;BME280;56331;51.992;20.910;2023-06-14T04:05:42;100296.21;;;24.43;42.42
69221;BME280;56331;51.992;20.910;2023-06-14T04:08:09;100301.19;;;24.44;42.41
69221;BME280;56331;51.992;20.910;2023-06-14T04:10:36;100297.60;;;24.43;42.43
69221;BME280;56331;51.992;20.910;2023-06-14T04:13:02;100301.78;;;24.43;42.45
69221;BME280;56331;51.992;20.910;2023-06-14T04:15:29;100302.58;;;24.44;42.49
69221;BME280;56331;51.992;20.910;2023-06-14T04:17:55;100295.97;;;24.42;42.49
69221;BME280;56331;51.992;20.910;2023-06-14T04:20:23;100293.42;;;24.43;42.50
69221;BME280;56331;51.992;20.910;2023-06-14T04:22:52;100290.64;;;24.43;42.52
69221;BME280;56331;51.992;20.910;2023-06-14T04:25:19;100295.97;;;24.42;42.51
69221;BME280;56331;51.992;20.910;2023-06-14T04:27:46;100295.16;;;24.42;42.55
69221;BME280;56331;51.992;20.910;2023-06-14T04:30:13;100290.98;;;24.42;42.56
69221;BME280;56331;51.992;20.910;2023-06-14T04:32:39;100288.20;;;24.42;42.55
69221;BME280;56331;51.992;20.910;2023-06-14T04:35:07;100293.77;;;24.42;42.58
69221;BME280;56331;51.992;20.910;2023-06-14T04:37:34;100290.98;;;24.42;42.59
69221;BME280;56331;51.992;20.910;2023-06-14T04:40:00;100294.36;;;24.41;42.61
69221;BME280;56331;51.992;20.910;2023-06-14T04:42:27;100290.98;;;24.42;42.63
69221;BME280;56331;51.992;20.910;2023-06-14T04:45:00;100292.97;;;24.41;42.64
69221;BME280;56331;51.992;20.910;2023-06-14T04:47:26;100300.73;;;24.42;42.65
69221;BME280;56331;51.992;20.910;2023-06-14T04:49:58;100299.93;;;24.41;42.68
69221;BME280;56331;51.992;20.910;2023-06-14T04:52:26;100292.97;;;24.41;42.69
69221;BME280;56331;51.992;20.910;2023-06-14T04:54:52;100295.75;;;24.41;42.72
69221;BME280;56331;51.992;20.910;2023-06-14T04:57:20;100295.54;;;24.40;42.81
69221;BME280;56331;51.992;20.910;2023-06-14T04:59:48;100296.94;;;24.40;42.92
69221;BME280;56331;51.992;20.910;2023-06-14T05:02:16;100296.94;;;24.40;43.00
69221;BME280;56331;51.992;20.910;2023-06-14T05:04:43;100293.56;;;24.41;43.04
69221;BME280;56331;51.992;20.910;2023-06-14T05:07:09;100291.58;;;24.41;42.91
69221;BME280;56331;51.992;20.910;2023-06-14T05:09:36;100292.17;;;24.41;42.94
69221;BME280;56331;51.992;20.910;2023-06-14T05:12:04;100290.77;;;24.41;43.00
69221;BME280;56331;51.992;20.910;2023-06-14T05:14:30;100302.50;;;24.40;43.13
69221;BME280;56331;51.992;20.910;2023-06-14T05:16:57;100295.30;;;24.39;43.24
69221;BME280;56331;51.992;20.910;2023-06-14T05:19:23;100301.45;;;24.39;43.47
69221;BME280;56331;51.992;20.910;2023-06-14T05:21:50;100299.48;;;24.39;43.61
69221;BME280;56331;51.992;20.910;2023-06-14T05:24:17;100306.22;;;24.38;43.77
69221;BME280;56331;51.992;20.910;2023-06-14T05:26:44;100299.48;;;24.39;43.77
69221;BME280;56331;51.992;20.910;2023-06-14T05:29:10;100303.44;;;24.38;43.82
69221;BME280;56331;51.992;20.910;2023-06-14T05:31:36;100297.06;;;24.38;43.87
69221;BME280;56331;51.992;20.910;2023-06-14T05:34:04;100302.27;;;24.39;43.89
69221;BME280;56331;51.992;20.910;2023-06-14T05:36:30;100304.83;;;24.38;44.02
69221;BME280;56331;51.992;20.910;2023-06-14T05:38:57;100302.64;;;24.38;44.16
69221;BME280;56331;51.992;20.910;2023-06-14T05:41:26;100299.61;;;24.37;44.22
69221;BME280;56331;51.992;20.910;2023-06-14T05:43:58;100301.80;;;24.37;44.35
69221;BME280;56331;51.992;20.910;2023-06-14T05:46:21;100297.63;;;24.37;44.55
69221;BME280;56331;51.992;20.910;2023-06-14T05:48:50;100296.83;;;24.37;44.50
69221;BME280;56331;51.992;20.910;2023-06-14T05:51:17;100290.66;;;24.37;44.67
69221;BME280;56331;51.992;20.910;2023-06-14T05:53:46;100289.27;;;24.37;44.74
69221;BME280;56331;51.992;20.910;2023-06-14T05:56:14;100297.41;;;24.36;44.72
69221;BME280;56331;51.992;20.910;2023-06-14T05:58:44;100298.80;;;24.36;44.72
69221;BME280;56331;51.992;20.910;2023-06-14T06:01:10;100302.98;;;24.36;44.81
69221;BME280;56331;51.992;20.910;2023-06-14T06:03:37;100302.98;;;24.36;44.74
69221;BME280;56331;51.992;20.910;2023-06-14T06:06:04;100295.81;;;24.35;44.86
69221;BME280;56331;51.992;20.910;2023-06-14T06:08:30;100297.20;;;24.35;44.87
69221;BME280;56331;51.992;20.910;2023-06-14T06:10:59;100300.55;;;24.35;44.85
69221;BME280;56331;51.992;20.910;2023-06-14T06:13:27;100299.16;;;24.35;44.83
69221;BME280;56331;51.992;20.910;2023-06-14T06:15:54;100302.18;;;24.36;44.98
69221;BME280;56331;51.992;20.910;2023-06-14T06:18:20;100306.95;;;24.35;44.93
69221;BME280;56331;51.992;20.910;2023-06-14T06:20:46;100302.77;;;24.35;45.15
69221;BME280;56331;51.992;20.910;2023-06-14T06:23:13;100301.52;;;24.33;45.21
69221;BME280;56331;51.992;20.910;2023-06-14T06:25:39;100307.08;;;24.33;45.24
69221;BME280;56331;51.992;20.910;2023-06-14T06:28:06;100305.91;;;24.34;45.20
69221;BME280;56331;51.992;20.910;2023-06-14T06:30:32;100300.68;;;24.32;45.16
69221;BME280;56331;51.992;20.910;2023-06-14T06:32:59;100305.09;;;24.33;45.39
69221;BME280;56331;51.992;20.910;2023-06-14T06:35:25;100306.48;;;24.33;45.59
69221;BME280;56331;51.992;20.910;2023-06-14T06:37:52;100306.70;;;24.34;45.78
69221;BME280;56331;51.992;20.910;2023-06-14T06:40:18;100309.86;;;24.33;45.99
69221;BME280;56331;51.992;20.910;2023-06-14T06:42:45;100310.80;;;24.31;46.06
69221;BME280;56331;51.992;20.910;2023-06-14T06:45:11;100317.97;;;24.32;45.78
69221;BME280;56331;51.992;20.910;2023-06-14T06:47:38;100317.63;;;24.33;45.68
69221;BME280;56331;51.992;20.910;2023-06-14T06:50:05;100320.41;;;24.33;45.65
69221;BME280;56331;51.992;20.910;2023-06-14T06:52:33;100327.83;;;24.35;45.59
69221;BME280;56331;51.992;20.910;2023-06-14T06:55:00;100326.57;;;24.33;46.02
69221;BME280;56331;51.992;20.910;2023-06-14T06:57:26;100327.05;;;24.29;46.46
69221;BME280;56331;51.992;20.910;2023-06-14T06:59:54;100331.56;;;24.27;46.73
69221;BME280;56331;51.992;20.910;2023-06-14T07:02:21;100331.81;;;24.28;46.99
69221;BME280;56331;51.992;20.910;2023-06-14T07:04:47;100334.81;;;24.29;46.98
69221;BME280;56331;51.992;20.910;2023-06-14T07:07:13;100337.84;;;24.30;47.01
69221;BME280;56331;51.992;20.910;2023-06-14T07:09:40;100341.18;;;24.30;46.87
69221;BME280;56331;51.992;20.910;2023-06-14T07:12:08;100339.44;;;24.31;46.77
69221;BME280;56331;51.992;20.910;2023-06-14T07:14:35;100337.84;;;24.30;46.62
69221;BME280;56331;51.992;20.910;2023-06-14T07:17:01;100337.59;;;24.29;46.63
69221;BME280;56331;51.992;20.910;2023-06-14T07:19:28;100338.64;;;24.31;46.56
69221;BME280;56331;51.992;20.910;2023-06-14T07:21:54;100335.48;;;24.32;46.45
69221;BME280;56331;51.992;20.910;2023-06-14T07:24:21;100325.73;;;24.32;46.38
69221;BME280;56331;51.992;20.910;2023-06-14T07:26:48;100340.48;;;24.33;46.31
69221;BME280;56331;51.992;20.910;2023-06-14T07:29:18;100335.72;;;24.33;46.18
69221;BME280;56331;51.992;20.910;2023-06-14T07:31:44;100338.97;;;24.35;46.01
69221;BME280;56331;51.992;20.910;2023-06-14T07:34:10;100342.77;;;24.37;45.80
69221;BME280;56331;51.992;20.910;2023-06-14T07:36:37;100340.78;;;24.37;45.88
69221;BME280;56331;51.992;20.910;2023-06-14T07:39:04;100346.81;;;24.39;45.97
69221;BME280;56331;51.992;20.910;2023-06-14T07:41:32;100347.40;;;24.39;45.90
69221;BME280;56331;51.992;20.910;2023-06-14T07:43:59;100343.09;;;24.41;45.82
69221;BME280;56331;51.992;20.910;2023-06-14T07:46:25;100340.52;;;24.42;45.80
69221;BME280;56331;51.992;20.910;2023-06-14T07:48:51;100344.27;;;24.40;46.08
69221;BME280;56331;51.992;20.910;2023-06-14T07:51:18;100340.52;;;24.42;46.28
69221;BME280;56331;51.992;20.910;2023-06-14T07:53:44;100342.40;;;24.44;46.69
69221;BME280;56331;51.992;20.910;2023-06-14T07:56:10;100342.27;;;24.47;46.70
69221;BME280;56331;51.992;20.910;2023-06-14T07:58:37;100341.33;;;24.49;46.78
69221;BME280;56331;51.992;20.910;2023-06-14T08:01:05;100313.94;;;24.51;46.92
69221;BME280;56331;51.992;20.910;2023-06-14T08:03:34;100340.84;;;24.53;46.98
69221;BME280;56331;51.992;20.910;2023-06-14T08:06:01;100343.70;;;24.57;47.01
69221;BME280;56331;51.992;20.910;2023-06-14T08:08:28;100343.92;;;24.58;47.17
69221;BME280;56331;51.992;20.910;2023-06-14T08:10:55;100341.59;;;24.60;47.28
69221;BME280;56331;51.992;20.910;2023-06-14T08:13:21;100340.66;;;24.62;47.38
69221;BME280;56331;51.992;20.910;2023-06-14T08:15:47;100336.09;;;24.63;47.42
69221;BME280;56331;51.992;20.910;2023-06-14T08:18:14;100340.73;;;24.65;47.24
69221;BME280;56331;51.992;20.910;2023-06-14T08:20:40;100338.40;;;24.67;47.26
69221;BME280;56331;51.992;20.910;2023-06-14T08:23:07;100340.84;;;24.69;47.29
69221;BME280;56331;51.992;20.910;2023-06-14T08:25:35;100343.25;;;24.71;47.42
69221;BME280;56331;51.992;20.910;2023-06-14T08:28:01;100335.69;;;24.71;47.58
69221;BME280;56331;51.992;20.910;2023-06-14T08:30:27;100340.32;;;24.73;47.62
69221;BME280;56331;51.992;20.910;2023-06-14T08:32:54;100333.95;;;24.73;47.39
69221;BME280;56331;51.992;20.910;2023-06-14T08:35:22;100337.19;;;24.75;47.06
69221;BME280;56331;51.992;20.910;2023-06-14T08:37:49;100340.78;;;24.75;46.89
69221;BME280;56331;51.992;20.910;2023-06-14T08:40:20;100340.19;;;24.76;46.68
69221;BME280;56331;51.992;20.910;2023-06-14T08:42:53;100333.22;;;24.76;46.55
69221;BME280;56331;51.992;20.910;2023-06-14T08:45:21;100337.40;;;24.76;46.40
69221;BME280;56331;51.992;20.910;2023-06-14T08:47:48;100332.63;;;24.76;46.45
69221;BME280;56331;51.992;20.910;2023-06-14T08:50:21;100324.86;;;24.76;46.71
69221;BME280;56331;51.992;20.910;2023-06-14T08:52:54;100332.28;;;24.78;46.67
69221;BME280;56331;51.992;20.910;2023-06-14T08:55:24;100331.10;;;24.79;46.86
69221;BME280;56331;51.992;20.910;2023-06-14T08:57:53;100329.36;;;24.80;46.68
69221;BME280;56331;51.992;20.910;2023-06-14T09:00:20;100328.31;;;24.79;46.53
69221;BME280;56331;51.992;20.910;2023-06-14T09:02:48;100327.16;;;24.80;46.45
69221;BME280;56331;51.992;20.910;2023-06-14T09:05:15;100329.15;;;24.79;46.67
69221;BME280;56331;51.992;20.910;2023-06-14T09:07:44;100335.14;;;24.81;46.55
69221;BME280;56331;51.992;20.910;2023-06-14T09:10:14;100338.90;;;24.79;46.51
69221;BME280;56331;51.992;20.910;2023-06-14T09:12:42;100330.75;;;24.80;46.46
69221;BME280;56331;51.992;20.910;2023-06-14T09:15:09;100332.95;;;24.81;46.52
69221;BME280;56331;51.992;20.910;2023-06-14T09:17:37;100330.55;;;24.79;46.45
69221;BME280;56331;51.992;20.910;2023-06-14T09:20:06;100339.46;;;24.79;46.51
69221;BME280;56331;51.992;20.910;2023-06-14T09:22:40;100336.33;;;24.80;46.63
69221;BME280;56331;51.992;20.910;2023-06-14T09:25:05;100336.53;;;24.81;46.66
69221;BME280;56331;51.992;20.910;2023-06-14T09:27:32;100336.53;;;24.81;46.66
69221;BME280;56331;51.992;20.910;2023-06-14T09:29:59;100330.16;;;24.81;46.68
69221;BME280;56331;51.992;20.910;2023-06-14T09:32:25;100332.59;;;24.82;46.69
69221;BME280;56331;51.992;20.910;2023-06-14T09:34:52;100319.47;;;24.83;46.70
69221;BME280;56331;51.992;20.910;2023-06-14T09:37:30;100326.44;;;24.83;46.67
69221;BME280;56331;51.992;20.910;2023-06-14T09:39:58;100325.50;;;24.85;46.56
69221;BME280;56331;51.992;20.910;2023-06-14T09:42:25;100319.54;;;24.86;46.52
69221;BME280;56331;51.992;20.910;2023-06-14T09:44:55;100327.31;;;24.87;46.53
69221;BME280;56331;51.992;20.910;2023-06-14T09:47:23;100323.52;;;24.85;46.33
69221;BME280;56331;51.992;20.910;2023-06-14T09:49:50;100322.99;;;24.89;45.86
69221;BME280;56331;51.992;20.910;2023-06-14T09:52:18;100329.16;;;24.89;45.53
69221;BME280;56331;51.992;20.910;2023-06-14T09:54:47;100321.35;;;24.79;42.89
69221;BME280;56331;51.992;20.910;2023-06-14T09:57:14;100325.11;;;24.77;42.92
69221;BME280;56331;51.992;20.910;2023-06-14T09:59:43;100323.33;;;24.78;43.93
69221;BME280;56331;51.992;20.910;2023-06-14T10:04:50;100319.02;;;24.81;44.02
69221;BME280;56331;51.992;20.910;2023-06-14T10:07:19;100318.22;;;24.80;44.18
69221;BME280;56331;51.992;20.910;2023-06-14T10:09:47;100321.00;;;24.80;44.25
69221;BME280;56331;51.992;20.910;2023-06-14T10:12:18;100317.63;;;24.81;44.37
69221;BME280;56331;51.992;20.910;2023-06-14T10:14:49;100320.06;;;24.82;44.44
69221;BME280;56331;51.992;20.910;2023-06-14T10:20:10;100326.65;;;24.84;44.47
69221;BME280;56331;51.992;20.910;2023-06-14T10:22:38;100318.53;;;24.85;44.54
69221;BME280;56331;51.992;20.910;2023-06-14T10:25:07;100315.95;;;24.86;42.75
69221;BME280;56331;51.992;20.910;2023-06-14T10:27:35;100313.52;;;24.84;43.63
69221;BME280;56331;51.992;20.910;2023-06-14T10:30:03;100310.52;;;24.83;43.57
69221;BME280;56331;51.992;20.910;2023-06-14T10:32:31;100315.15;;;24.85;43.72
69221;BME280;56331;51.992;20.910;2023-06-14T10:35:05;100311.77;;;24.86;43.87
69221;BME280;56331;51.992;20.910;2023-06-14T10:37:34;100320.73;;;24.85;43.95
69221;BME280;56331;51.992;20.910;2023-06-14T10:40:01;100311.32;;;24.84;44.08
69221;BME280;56331;51.992;20.910;2023-06-14T10:42:33;100311.98;;;24.87;44.22
69221;BME280;56331;51.992;20.910;2023-06-14T10:45:00;100314.42;;;24.88;44.20
69221;BME280;56331;51.992;20.910;2023-06-14T10:47:36;100313.23;;;24.89;45.72
69221;BME280;56331;51.992;20.910;2023-06-14T10:52:38;100309.06;;;24.89;44.60
69221;BME280;56331;51.992;20.910;2023-06-14T10:55:16;100311.63;;;24.88;44.90
69221;BME280;56331;51.992;20.910;2023-06-14T10:57:49;100308.50;;;24.90;44.64
69221;BME280;56331;51.992;20.910;2023-06-14T11:00:22;100296.77;;;24.91;44.64
69221;BME280;56331;51.992;20.910;2023-06-14T11:05:50;100299.55;;;24.91;44.70
69221;BME280;56331;51.992;20.910;2023-06-14T11:11:08;100295.13;;;24.80;41.40
69221;BME280;56331;51.992;20.910;2023-06-14T11:13:37;100291.75;;;24.80;42.75
69221;BME280;56331;51.992;20.910;2023-06-14T11:16:14;100293.80;;;24.83;42.69
69221;BME280;56331;51.992;20.910;2023-06-14T11:18:41;100294.39;;;24.83;42.57
69221;BME280;56331;51.992;20.910;2023-06-14T11:21:08;100295.78;;;24.83;42.49
69221;BME280;56331;51.992;20.910;2023-06-14T11:23:35;100294.98;;;24.82;42.47
69221;BME280;56331;51.992;20.910;2023-06-14T11:26:02;100296.38;;;24.82;42.46
69221;BME280;56331;51.992;20.910;2023-06-14T11:28:42;100299.76;;;24.82;42.41
69221;BME280;56331;51.992;20.910;2023-06-14T11:31:06;100294.98;;;24.82;42.30
69221;BME280;56331;51.992;20.910;2023-06-14T11:33:33;100290.00;;;24.82;42.29
69221;BME280;56331;51.992;20.910;2023-06-14T11:36:06;100284.99;;;24.81;42.24
69221;BME280;56331;51.992;20.910;2023-06-14T11:38:36;100287.43;;;24.83;42.18
69221;BME280;56331;51.992;20.910;2023-06-14T11:41:03;100285.58;;;24.81;42.29
69221;BME280;56331;51.992;20.910;2023-06-14T11:43:30;100290.00;;;24.82;42.22
69221;BME280;56331;51.992;20.910;2023-06-14T11:45:59;100290.00;;;24.82;42.17
69221;BME280;56331;51.992;20.910;2023-06-14T11:48:41;100285.83;;;24.82;42.25
69221;BME280;56331;51.992;20.910;2023-06-14T11:51:08;100289.55;;;24.80;42.57
69221;BME280;56331;51.992;20.910;2023-06-14T11:53:35;100282.80;;;24.81;43.41
69221;BME280;56331;51.992;20.910;2023-06-14T11:56:01;100286.38;;;24.81;43.87
69221;BME280;56331;51.992;20.910;2023-06-14T11:58:29;100289.77;;;24.81;43.97
69221;BME280;56331;51.992;20.910;2023-06-14T12:00:55;100291.75;;;24.80;44.20
69221;BME280;56331;51.992;20.910;2023-06-14T12:03:26;100292.55;;;24.81;44.38
69221;BME280;56331;51.992;20.910;2023-06-14T12:06:08;100293.59;;;24.82;44.61
69221;BME280;56331;51.992;20.910;2023-06-14T12:08:36;100297.39;;;24.84;44.80
69221;BME280;56331;51.992;20.910;2023-06-14T12:11:04;100298.44;;;24.85;44.94
69221;BME280;56331;51.992;20.910;2023-06-14T12:13:32;100292.48;;;24.87;45.07
69221;BME280;56331;51.992;20.910;2023-06-14T12:15:58;100285.75;;;24.88;45.10
69221;BME280;56331;51.992;20.910;2023-06-14T12:18:37;100290.14;;;24.89;45.16
69221;BME280;56331;51.992;20.910;2023-06-14T12:21:01;100281.20;;;24.89;45.20
69221;BME280;56331;51.992;20.910;2023-06-14T12:23:45;100287.81;;;24.91;45.13
69221;BME280;56331;51.992;20.910;2023-06-14T12:26:13;100285.83;;;24.92;45.23
69221;BME280;56331;51.992;20.910;2023-06-14T12:28:41;100291.40;;;24.92;45.27
69221;BME280;56331;51.992;20.910;2023-06-14T12:31:11;100291.19;;;24.91;45.35
69221;BME280;56331;51.992;20.910;2023-06-14T12:33:39;100285.47;;;24.93;45.39
69221;BME280;56331;51.992;20.910;2023-06-14T12:36:08;100286.06;;;24.93;43.97
69221;BME280;56331;51.992;20.910;2023-06-14T12:38:35;100280.77;;;24.87;40.10
69221;BME280;56331;51.992;20.910;2023-06-14T12:41:02;100281.33;;;24.87;39.94
69221;BME280;56331;51.992;20.910;2023-06-14T12:43:28;100271.06;;;24.81;39.86
69221;BME280;56331;51.992;20.910;2023-06-14T12:45:55;100271.66;;;24.81;39.96
69221;BME280;56331;51.992;20.910;2023-06-14T12:48:23;100275.24;;;24.81;40.45
69221;BME280;56331;51.992;20.910;2023-06-14T12:50:49;100269.11;;;24.82;40.69
69221;BME280;56331;51.992;20.910;2023-06-14T12:53:18;100259.92;;;24.81;40.97
69221;BME280;56331;51.992;20.910;2023-06-14T12:55:44;100261.17;;;24.84;41.35
69221;BME280;56331;51.992;20.910;2023-06-14T12:58:11;100254.06;;;24.86;41.44
69221;BME280;56331;51.992;20.910;2023-06-14T13:00:40;100255.10;;;24.88;41.73
69221;BME280;56331;51.992;20.910;2023-06-14T13:03:07;100249.74;;;24.89;42.13